sensor_id;sensor_type;location;lat;lon;timestamp;temperature;humidity
13600;DHT22;6871;51.34740610;4.31323160;2022-08-03T00:01:24;26.00;70.40
13600;DHT22;6871;51.34740610;4.31323160;2022-08-03T00:03:54;26.00;70.40
13600;DHT22;6871;51.34740610;4.31323160;2022-08-03T00:06:23;26.00;70.40
13600;DHT22;6871;51.34740610;4.31323160;2022-08-03T00:08:52;26.00;70.30
13600;DHT22;6871;51.34740610;4.31323160;2022-08-03T00:11:21;26.00;70.30
13600;DHT22;6871;51.34740610;4.31323160;2022-08-03T00:13:50;26.00;70.30
13600;DHT22;6871;51.34740610;4.31323160;2022-08-03T00:16:20;26.00;70.40
13600;DHT22;6871;51.34740610;4.31323160;2022-08-03T00:18:49;26.00;70.30
13600;DHT22;6871;51.34740610;4.31323160;2022-08-03T00:21:18;26.00;70.30
13600;DHT22;6871;51.34740610;4.31323160;2022-08-03T00:23:47;26.00;70.20
13600;DHT22;6871;51.34740610;4.31323160;2022-08-03T00:26:16;26.00;70.20
13600;DHT22;6871;51.34740610;4.31323160;2022-08-03T00:28:44;26.00;70.20
13600;DHT22;6871;51.34740610;4.31323160;2022-08-03T00:31:14;26.00;70.20
13600;DHT22;6871;51.34740610;4.31323160;2022-08-03T00:33:43;26.00;70.30
13600;DHT22;6871;51.34740610;4.31323160;2022-08-03T00:36:12;26.00;69.60
13600;DHT22;6871;51.34740610;4.31323160;2022-08-03T00:38:41;25.90;70.30
13600;DHT22;6871;51.34740610;4.31323160;2022-08-03T00:41:09;26.00;70.20
13600;DHT22;6871;51.34740610;4.31323160;2022-08-03T00:43:39;25.90;70.10
13600;DHT22;6871;51.34740610;4.31323160;2022-08-03T00:46:08;25.90;70.10
13600;DHT22;6871;51.34740610;4.31323160;2022-08-03T00:48:37;25.90;70.10
13600;DHT22;6871;51.34740610;4.31323160;2022-08-03T00:51:06;26.00;70.20
13600;DHT22;6871;51.34740610;4.31323160;2022-08-03T00:53:36;25.90;70.10
13600;DHT22;6871;51.34740610;4.31323160;2022-08-03T00:56:05;25.90;70.10
13600;DHT22;6871;51.34740610;4.31323160;2022-08-03T00:58:34;25.90;70.10
13600;DHT22;6871;51.34740610;4.31323160;2022-08-03T01:01:03;25.90;70.00
13600;DHT22;6871;51.34740610;4.31323160;2022-08-03T01:03:33;25.90;70.10
13600;DHT22;6871;51.34740610;4.31323160;2022-08-03T01:06:06;25.90;70.10
13600;DHT22;6871;51.34740610;4.31323160;2022-08-03T01:08:38;25.90;70.10
13600;DHT22;6871;51.34740610;4.31323160;2022-08-03T01:11:14;25.90;69.90
13600;DHT22;6871;51.34740610;4.31323160;2022-08-03T01:13:47;25.90;69.90
13600;DHT22;6871;51.34740610;4.31323160;2022-08-03T01:16:18;25.90;69.90
13600;DHT22;6871;51.34740610;4.31323160;2022-08-03T01:18:50;25.90;70.00
13600;DHT22;6871;51.34740610;4.31323160;2022-08-03T01:21:25;25.90;70.00
13600;DHT22;6871;51.34740610;4.31323160;2022-08-03T01:24:09;25.90;70.10
13600;DHT22;6871;51.34740610;4.31323160;2022-08-03T01:26:50;25.80;70.00
13600;DHT22;6871;51.34740610;4.31323160;2022-08-03T01:32:21;25.80;69.80
13600;DHT22;6871;51.34740610;4.31323160;2022-08-03T01:34:54;25.80;70.00
13600;DHT22;6871;51.34740610;4.31323160;2022-08-03T01:37:26;25.80;70.10
13600;DHT22;6871;51.34740610;4.31323160;2022-08-03T01:39:57;25.80;70.10
13600;DHT22;6871;51.34740610;4.31323160;2022-08-03T01:42:28;25.80;70.00
13600;DHT22;6871;51.34740610;4.31323160;2022-08-03T01:44:59;25.80;70.00
13600;DHT22;6871;51.34740610;4.31323160;2022-08-03T01:47:29;25.80;70.00
13600;DHT22;6871;51.34740610;4.31323160;2022-08-03T01:49:59;25.80;70.40
13600;DHT22;6871;51.34740610;4.31323160;2022-08-03T01:52:30;25.80;70.00
13600;DHT22;6871;51.34740610;4.31323160;2022-08-03T01:55:01;25.80;70.00
13600;DHT22;6871;51.34740610;4.31323160;2022-08-03T01:57:31;25.80;69.70
13600;DHT22;6871;51.34740610;4.31323160;2022-08-03T02:00:01;25.80;69.80
13600;DHT22;6871;51.34740610;4.31323160;2022-08-03T02:02:31;25.80;69.80
13600;DHT22;6871;51.34740610;4.31323160;2022-08-03T02:05:04;25.80;70.50
13600;DHT22;6871;51.34740610;4.31323160;2022-08-03T02:07:34;25.80;69.80
13600;DHT22;6871;51.34740610;4.31323160;2022-08-03T02:10:06;25.80;69.80
13600;DHT22;6871;51.34740610;4.31323160;2022-08-03T02:12:37;25.70;69.60
13600;DHT22;6871;51.34740610;4.31323160;2022-08-03T02:15:08;25.70;69.60
13600;DHT22;6871;51.34740610;4.31323160;2022-08-03T02:17:39;25.70;69.60
13600;DHT22;6871;51.34740610;4.31323160;2022-08-03T02:20:11;25.70;69.80
13600;DHT22;6871;51.34740610;4.31323160;2022-08-03T02:22:42;25.70;69.60
13600;DHT22;6871;51.34740610;4.31323160;2022-08-03T02:25:13;25.70;69.70
13600;DHT22;6871;51.34740610;4.31323160;2022-08-03T02:27:48;25.70;69.50
13600;DHT22;6871;51.34740610;4.31323160;2022-08-03T02:30:16;25.70;69.50
13600;DHT22;6871;51.34740610;4.31323160;2022-08-03T02:32:49;25.70;69.50
13600;DHT22;6871;51.34740610;4.31323160;2022-08-03T02:35:18;25.70;69.60
13600;DHT22;6871;51.34740610;4.31323160;2022-08-03T02:37:51;25.70;69.60
13600;DHT22;6871;51.34740610;4.31323160;2022-08-03T02:40:22;25.70;69.80
13600;DHT22;6871;51.34740610;4.31323160;2022-08-03T02:42:54;25.70;69.60
13600;DHT22;6871;51.34740610;4.31323160;2022-08-03T02:45:25;25.70;69.50
13600;DHT22;6871;51.34740610;4.31323160;2022-08-03T02:47:57;25.70;69.40
13600;DHT22;6871;51.34740610;4.31323160;2022-08-03T02:50:28;25.70;70.30
13600;DHT22;6871;51.34740610;4.31323160;2022-08-03T02:52:58;25.70;69.50
13600;DHT22;6871;51.34740610;4.31323160;2022-08-03T02:55:30;25.70;69.60
13600;DHT22;6871;51.34740610;4.31323160;2022-08-03T02:58:00;25.70;69.50
13600;DHT22;6871;51.34740610;4.31323160;2022-08-03T03:00:31;25.70;69.30
13600;DHT22;6871;51.34740610;4.31323160;2022-08-03T03:03:02;25.70;69.40
13600;DHT22;6871;51.34740610;4.31323160;2022-08-03T03:05:33;25.70;69.60
13600;DHT22;6871;51.34740610;4.31323160;2022-08-03T03:08:04;25.60;69.50
13600;DHT22;6871;51.34740610;4.31323160;2022-08-03T03:10:33;25.70;69.60
13600;DHT22;6871;51.34740610;4.31323160;2022-08-03T03:13:02;25.70;69.40
13600;DHT22;6871;51.34740610;4.31323160;2022-08-03T03:15:32;25.70;69.40
13600;DHT22;6871;51.34740610;4.31323160;2022-08-03T03:18:04;25.60;69.20
13600;DHT22;6871;51.34740610;4.31323160;2022-08-03T03:20:37;25.60;69.40
13600;DHT22;6871;51.34740610;4.31323160;2022-08-03T03:23:09;25.60;69.40
13600;DHT22;6871;51.34740610;4.31323160;2022-08-03T03:25:38;25.60;69.50
13600;DHT22;6871;51.34740610;4.31323160;2022-08-03T03:28:08;25.60;69.30
13600;DHT22;6871;51.34740610;4.31323160;2022-08-03T03:30:38;25.60;69.20
13600;DHT22;6871;51.34740610;4.31323160;2022-08-03T03:33:07;25.60;69.00
13600;DHT22;6871;51.34740610;4.31323160;2022-08-03T03:35:36;25.60;69.40
13600;DHT22;6871;51.34740610;4.31323160;2022-08-03T03:38:05;25.60;69.40
13600;DHT22;6871;51.34740610;4.31323160;2022-08-03T03:40:35;25.60;69.50
13600;DHT22;6871;51.34740610;4.31323160;2022-08-03T03:43:08;25.60;69.40
13600;DHT22;6871;51.34740610;4.31323160;2022-08-03T03:45:37;25.60;69.30
13600;DHT22;6871;51.34740610;4.31323160;2022-08-03T03:48:08;25.60;69.00
13600;DHT22;6871;51.34740610;4.31323160;2022-08-03T03:50:38;25.60;69.40
13600;DHT22;6871;51.34740610;4.31323160;2022-08-03T03:53:10;25.60;69.40
13600;DHT22;6871;51.34740610;4.31323160;2022-08-03T03:55:40;25.60;69.40
13600;DHT22;6871;51.34740610;4.31323160;2022-08-03T03:58:09;25.60;69.40
13600;DHT22;6871;51.34740610;4.31323160;2022-08-03T04:00:38;25.60;69.20
13600;DHT22;6871;51.34740610;4.31323160;2022-08-03T04:03:09;25.60;69.00
13600;DHT22;6871;51.34740610;4.31323160;2022-08-03T04:05:39;25.60;69.30
13600;DHT22;6871;51.34740610;4.31323160;2022-08-03T04:08:26;25.60;70.10
13600;DHT22;6871;51.34740610;4.31323160;2022-08-03T04:11:17;25.50;69.60
13600;DHT22;6871;51.34740610;4.31323160;2022-08-03T04:13:49;25.60;69.40
13600;DHT22;6871;51.34740610;4.31323160;2022-08-03T04:16:21;25.50;69.20
13600;DHT22;6871;51.34740610;4.31323160;2022-08-03T04:18:54;25.50;69.20
13600;DHT22;6871;51.34740610;4.31323160;2022-08-03T04:21:24;25.50;69.30
13600;DHT22;6871;51.34740610;4.31323160;2022-08-03T04:23:57;25.50;69.30
13600;DHT22;6871;51.34740610;4.31323160;2022-08-03T04:26:27;25.50;69.40
13600;DHT22;6871;51.34740610;4.31323160;2022-08-03T04:28:58;25.50;69.30
13600;DHT22;6871;51.34740610;4.31323160;2022-08-03T04:31:29;25.50;69.20
13600;DHT22;6871;51.34740610;4.31323160;2022-08-03T04:33:59;25.50;69.00
13600;DHT22;6871;51.34740610;4.31323160;2022-08-03T04:36:31;25.50;69.20
13600;DHT22;6871;51.34740610;4.31323160;2022-08-03T04:39:03;25.50;69.20
13600;DHT22;6871;51.34740610;4.31323160;2022-08-03T04:41:34;25.50;69.30
13600;DHT22;6871;51.34740610;4.31323160;2022-08-03T04:44:04;25.50;69.20
13600;DHT22;6871;51.34740610;4.31323160;2022-08-03T04:46:37;25.50;68.90
13600;DHT22;6871;51.34740610;4.31323160;2022-08-03T04:49:06;25.50;68.80
13600;DHT22;6871;51.34740610;4.31323160;2022-08-03T04:51:37;25.50;69.10
13600;DHT22;6871;51.34740610;4.31323160;2022-08-03T04:54:07;25.50;69.20
13600;DHT22;6871;51.34740610;4.31323160;2022-08-03T04:56:39;25.50;69.30
13600;DHT22;6871;51.34740610;4.31323160;2022-08-03T04:59:09;25.50;69.20
13600;DHT22;6871;51.34740610;4.31323160;2022-08-03T05:01:39;25.50;68.90
13600;DHT22;6871;51.34740610;4.31323160;2022-08-03T05:04:08;25.50;68.80
13600;DHT22;6871;51.34740610;4.31323160;2022-08-03T05:06:37;25.40;69.00
13600;DHT22;6871;51.34740610;4.31323160;2022-08-03T05:09:06;25.50;69.20
13600;DHT22;6871;51.34740610;4.31323160;2022-08-03T05:11:37;25.40;69.10
13600;DHT22;6871;51.34740610;4.31323160;2022-08-03T05:14:05;25.50;69.10
13600;DHT22;6871;51.34740610;4.31323160;2022-08-03T05:16:34;25.50;68.90
13600;DHT22;6871;51.34740610;4.31323160;2022-08-03T05:19:03;25.40;68.60
13600;DHT22;6871;51.34740610;4.31323160;2022-08-03T05:21:32;25.40;68.80
13600;DHT22;6871;51.34740610;4.31323160;2022-08-03T05:24:03;25.40;69.00
13600;DHT22;6871;51.34740610;4.31323160;2022-08-03T05:26:32;25.40;69.10
13600;DHT22;6871;51.34740610;4.31323160;2022-08-03T05:29:01;25.40;69.00
13600;DHT22;6871;51.34740610;4.31323160;2022-08-03T05:31:30;25.40;68.50
13600;DHT22;6871;51.34740610;4.31323160;2022-08-03T05:33:59;25.40;68.50
13600;DHT22;6871;51.34740610;4.31323160;2022-08-03T05:36:27;25.40;68.60
13600;DHT22;6871;51.34740610;4.31323160;2022-08-03T05:38:56;25.40;68.90
13600;DHT22;6871;51.34740610;4.31323160;2022-08-03T05:41:25;25.40;68.90
13600;DHT22;6871;51.34740610;4.31323160;2022-08-03T05:43:55;25.40;68.90
13600;DHT22;6871;51.34740610;4.31323160;2022-08-03T05:46:24;25.40;68.60
13600;DHT22;6871;51.34740610;4.31323160;2022-08-03T05:48:53;25.40;68.60
13600;DHT22;6871;51.34740610;4.31323160;2022-08-03T05:51:22;25.40;68.50
13600;DHT22;6871;51.34740610;4.31323160;2022-08-03T05:53:51;25.40;68.80
13600;DHT22;6871;51.34740610;4.31323160;2022-08-03T05:56:23;25.40;68.90
13600;DHT22;6871;51.34740610;4.31323160;2022-08-03T05:58:52;25.40;68.80
13600;DHT22;6871;51.34740610;4.31323160;2022-08-03T06:01:21;25.40;68.60
13600;DHT22;6871;51.34740610;4.31323160;2022-08-03T06:03:51;25.40;68.60
13600;DHT22;6871;51.34740610;4.31323160;2022-08-03T06:06:21;25.40;69.40
13600;DHT22;6871;51.34740610;4.31323160;2022-08-03T06:08:50;25.40;68.50
13600;DHT22;6871;51.34740610;4.31323160;2022-08-03T06:11:21;25.40;68.70
13600;DHT22;6871;51.34740610;4.31323160;2022-08-03T06:13:50;25.40;68.70
13600;DHT22;6871;51.34740610;4.31323160;2022-08-03T06:16:18;25.40;68.80
13600;DHT22;6871;51.34740610;4.31323160;2022-08-03T06:18:47;25.40;68.80
13600;DHT22;6871;51.34740610;4.31323160;2022-08-03T06:21:16;25.40;68.90
13600;DHT22;6871;51.34740610;4.31323160;2022-08-03T06:23:45;25.40;69.00
13600;DHT22;6871;51.34740610;4.31323160;2022-08-03T06:26:15;25.40;69.10
13600;DHT22;6871;51.34740610;4.31323160;2022-08-03T06:28:45;25.40;69.00
13600;DHT22;6871;51.34740610;4.31323160;2022-08-03T06:31:14;25.40;69.10
13600;DHT22;6871;51.34740610;4.31323160;2022-08-03T06:33:42;25.40;69.00
13600;DHT22;6871;51.34740610;4.31323160;2022-08-03T06:36:12;25.40;69.00
13600;DHT22;6871;51.34740610;4.31323160;2022-08-03T06:38:41;25.40;69.00
13600;DHT22;6871;51.34740610;4.31323160;2022-08-03T06:41:10;25.40;68.90
13600;DHT22;6871;51.34740610;4.31323160;2022-08-03T06:43:39;25.40;69.20
13600;DHT22;6871;51.34740610;4.31323160;2022-08-03T06:46:09;25.40;69.80
13600;DHT22;6871;51.34740610;4.31323160;2022-08-03T06:48:38;25.40;69.10
13600;DHT22;6871;51.34740610;4.31323160;2022-08-03T06:51:07;25.40;69.20
13600;DHT22;6871;51.34740610;4.31323160;2022-08-03T06:53:36;25.40;69.10
13600;DHT22;6871;51.34740610;4.31323160;2022-08-03T06:56:06;25.40;69.10
13600;DHT22;6871;51.34740610;4.31323160;2022-08-03T06:58:36;25.40;69.10
13600;DHT22;6871;51.34740610;4.31323160;2022-08-03T07:01:05;25.40;69.10
13600;DHT22;6871;51.34740610;4.31323160;2022-08-03T07:03:34;25.40;69.10
13600;DHT22;6871;51.34740610;4.31323160;2022-08-03T07:06:03;25.40;69.30
13600;DHT22;6871;51.34740610;4.31323160;2022-08-03T07:08:32;25.40;69.20
13600;DHT22;6871;51.34740610;4.31323160;2022-08-03T07:11:01;25.40;69.20
13600;DHT22;6871;51.34740610;4.31323160;2022-08-03T07:13:30;25.40;69.10
13600;DHT22;6871;51.34740610;4.31323160;2022-08-03T07:15:59;25.40;69.20
13600;DHT22;6871;51.34740610;4.31323160;2022-08-03T07:18:28;25.40;69.10
13600;DHT22;6871;51.34740610;4.31323160;2022-08-03T07:20:57;25.40;69.20
13600;DHT22;6871;51.34740610;4.31323160;2022-08-03T07:23:27;25.40;69.30
13600;DHT22;6871;51.34740610;4.31323160;2022-08-03T07:25:56;25.50;69.10
13600;DHT22;6871;51.34740610;4.31323160;2022-08-03T07:28:25;25.50;69.00
13600;DHT22;6871;51.34740610;4.31323160;2022-08-03T07:30:54;25.50;68.90
13600;DHT22;6871;51.34740610;4.31323160;2022-08-03T07:33:23;25.50;69.00
13600;DHT22;6871;51.34740610;4.31323160;2022-08-03T07:35:52;25.50;68.90
13600;DHT22;6871;51.34740610;4.31323160;2022-08-03T07:38:21;25.50;69.00
13600;DHT22;6871;51.34740610;4.31323160;2022-08-03T07:40:50;25.50;68.90
13600;DHT22;6871;51.34740610;4.31323160;2022-08-03T07:43:19;25.50;68.90
13600;DHT22;6871;51.34740610;4.31323160;2022-08-03T07:45:48;25.50;68.60
13600;DHT22;6871;51.34740610;4.31323160;2022-08-03T07:48:18;25.50;68.80
13600;DHT22;6871;51.34740610;4.31323160;2022-08-03T07:50:47;25.50;68.80
13600;DHT22;6871;51.34740610;4.31323160;2022-08-03T07:53:17;25.50;68.90
13600;DHT22;6871;51.34740610;4.31323160;2022-08-03T07:55:46;25.50;69.00
13600;DHT22;6871;51.34740610;4.31323160;2022-08-03T07:58:15;25.50;68.80
13600;DHT22;6871;51.34740610;4.31323160;2022-08-03T08:00:44;25.50;68.80
13600;DHT22;6871;51.34740610;4.31323160;2022-08-03T08:03:14;25.60;68.90
13600;DHT22;6871;51.34740610;4.31323160;2022-08-03T08:05:43;25.60;68.90
13600;DHT22;6871;51.34740610;4.31323160;2022-08-03T08:08:12;25.60;68.80
13600;DHT22;6871;51.34740610;4.31323160;2022-08-03T08:10:41;25.60;68.60
13600;DHT22;6871;51.34740610;4.31323160;2022-08-03T08:13:10;25.70;68.70
13600;DHT22;6871;51.34740610;4.31323160;2022-08-03T08:15:39;25.70;68.60
13600;DHT22;6871;51.34740610;4.31323160;2022-08-03T08:18:08;25.70;68.70
13600;DHT22;6871;51.34740610;4.31323160;2022-08-03T08:20:37;25.70;68.50
13600;DHT22;6871;51.34740610;4.31323160;2022-08-03T08:23:07;25.70;67.60
13600;DHT22;6871;51.34740610;4.31323160;2022-08-03T08:25:36;25.70;68.10
13600;DHT22;6871;51.34740610;4.31323160;2022-08-03T08:28:06;25.70;68.60
13600;DHT22;6871;51.34740610;4.31323160;2022-08-03T08:30:35;25.70;68.60
13600;DHT22;6871;51.34740610;4.31323160;2022-08-03T08:33:04;25.70;68.60
13600;DHT22;6871;51.34740610;4.31323160;2022-08-03T08:35:33;25.80;68.60
13600;DHT22;6871;51.34740610;4.31323160;2022-08-03T08:38:02;25.80;68.60
13600;DHT22;6871;51.34740610;4.31323160;2022-08-03T08:40:31;25.80;68.50
13600;DHT22;6871;51.34740610;4.31323160;2022-08-03T08:43:01;25.80;68.50
13600;DHT22;6871;51.34740610;4.31323160;2022-08-03T08:45:31;25.80;68.40
13600;DHT22;6871;51.34740610;4.31323160;2022-08-03T08:48:02;25.80;68.40
13600;DHT22;6871;51.34740610;4.31323160;2022-08-03T08:50:31;25.90;68.60
13600;DHT22;6871;51.34740610;4.31323160;2022-08-03T08:53:02;25.90;68.40
13600;DHT22;6871;51.34740610;4.31323160;2022-08-03T08:55:31;25.90;68.30
13600;DHT22;6871;51.34740610;4.31323160;2022-08-03T08:58:05;25.90;68.30
13600;DHT22;6871;51.34740610;4.31323160;2022-08-03T09:00:34;25.90;68.30
13600;DHT22;6871;51.34740610;4.31323160;2022-08-03T09:03:03;26.00;68.20
13600;DHT22;6871;51.34740610;4.31323160;2022-08-03T09:05:32;26.00;68.20
13600;DHT22;6871;51.34740610;4.31323160;2022-08-03T09:08:01;26.00;68.20
13600;DHT22;6871;51.34740610;4.31323160;2022-08-03T09:10:32;26.00;68.40
13600;DHT22;6871;51.34740610;4.31323160;2022-08-03T09:13:01;26.00;68.60
13600;DHT22;6871;51.34740610;4.31323160;2022-08-03T09:15:31;26.00;68.40
13600;DHT22;6871;51.34740610;4.31323160;2022-08-03T09:18:02;26.10;68.40
13600;DHT22;6871;51.34740610;4.31323160;2022-08-03T09:20:33;26.10;68.20
13600;DHT22;6871;51.34740610;4.31323160;2022-08-03T09:23:05;26.10;68.30
13600;DHT22;6871;51.34740610;4.31323160;2022-08-03T09:25:37;26.10;68.20
13600;DHT22;6871;51.34740610;4.31323160;2022-08-03T09:28:08;26.10;68.20
13600;DHT22;6871;51.34740610;4.31323160;2022-08-03T09:30:39;26.20;68.30
13600;DHT22;6871;51.34740610;4.31323160;2022-08-03T09:33:10;26.20;68.20
13600;DHT22;6871;51.34740610;4.31323160;2022-08-03T09:35:43;26.20;68.20
13600;DHT22;6871;51.34740610;4.31323160;2022-08-03T09:38:14;26.20;68.20
13600;DHT22;6871;51.34740610;4.31323160;2022-08-03T09:40:44;26.30;68.20
13600;DHT22;6871;51.34740610;4.31323160;2022-08-03T09:43:13;26.30;68.20
13600;DHT22;6871;51.34740610;4.31323160;2022-08-03T09:45:42;26.30;68.10
13600;DHT22;6871;51.34740610;4.31323160;2022-08-03T09:48:21;26.30;68.10
13600;DHT22;6871;51.34740610;4.31323160;2022-08-03T09:50:51;26.30;68.10
13600;DHT22;6871;51.34740610;4.31323160;2022-08-03T09:53:20;26.40;69.10
13600;DHT22;6871;51.34740610;4.31323160;2022-08-03T09:55:53;26.40;69.00
13600;DHT22;6871;51.34740610;4.31323160;2022-08-03T09:58:23;26.40;68.10
13600;DHT22;6871;51.34740610;4.31323160;2022-08-03T10:00:55;26.40;68.20
13600;DHT22;6871;51.34740610;4.31323160;2022-08-03T10:03:26;26.50;68.10
13600;DHT22;6871;51.34740610;4.31323160;2022-08-03T10:05:56;26.50;68.10
13600;DHT22;6871;51.34740610;4.31323160;2022-08-03T10:08:25;26.50;68.10
13600;DHT22;6871;51.34740610;4.31323160;2022-08-03T10:10:54;26.50;68.10
13600;DHT22;6871;51.34740610;4.31323160;2022-08-03T10:13:25;26.50;68.10
13600;DHT22;6871;51.34740610;4.31323160;2022-08-03T10:15:54;26.60;68.10
13600;DHT22;6871;51.34740610;4.31323160;2022-08-03T10:18:23;26.60;68.10
13600;DHT22;6871;51.34740610;4.31323160;2022-08-03T10:20:54;26.60;68.00
13600;DHT22;6871;51.34740610;4.31323160;2022-08-03T10:23:24;26.60;68.00
13600;DHT22;6871;51.34740610;4.31323160;2022-08-03T10:25:56;26.70;68.00
13600;DHT22;6871;51.34740610;4.31323160;2022-08-03T10:28:30;26.70;68.20
13600;DHT22;6871;51.34740610;4.31323160;2022-08-03T10:30:58;26.70;68.20
13600;DHT22;6871;51.34740610;4.31323160;2022-08-03T10:33:29;26.70;68.30
13600;DHT22;6871;51.34740610;4.31323160;2022-08-03T10:36:00;26.70;68.20
13600;DHT22;6871;51.34740610;4.31323160;2022-08-03T10:38:32;26.70;68.20
13600;DHT22;6871;51.34740610;4.31323160;2022-08-03T10:41:02;26.70;68.50
13600;DHT22;6871;51.34740610;4.31323160;2022-08-03T10:43:37;26.80;68.50
13600;DHT22;6871;51.34740610;4.31323160;2022-08-03T10:46:06;26.80;68.60
13600;DHT22;6871;51.34740610;4.31323160;2022-08-03T10:48:36;26.80;68.50
13600;DHT22;6871;51.34740610;4.31323160;2022-08-03T10:51:05;26.80;68.50
13600;DHT22;6871;51.34740610;4.31323160;2022-08-03T10:53:35;26.80;68.60
13600;DHT22;6871;51.34740610;4.31323160;2022-08-03T10:56:05;26.80;68.50
13600;DHT22;6871;51.34740610;4.31323160;2022-08-03T10:58:52;26.80;68.50
13600;DHT22;6871;51.34740610;4.31323160;2022-08-03T11:04:18;26.90;68.90
13600;DHT22;6871;51.34740610;4.31323160;2022-08-03T11:06:52;26.90;69.00
13600;DHT22;6871;51.34740610;4.31323160;2022-08-03T11:09:19;26.90;69.00
13600;DHT22;6871;51.34740610;4.31323160;2022-08-03T11:11:48;26.90;69.00
13600;DHT22;6871;51.34740610;4.31323160;2022-08-03T11:14:19;26.90;69.00
13600;DHT22;6871;51.34740610;4.31323160;2022-08-03T11:16:50;27.00;69.00
13600;DHT22;6871;51.34740610;4.31323160;2022-08-03T11:19:21;27.00;69.10
13600;DHT22;6871;51.34740610;4.31323160;2022-08-03T11:21:56;27.00;69.00
13600;DHT22;6871;51.34740610;4.31323160;2022-08-03T11:27:32;27.00;69.10
13600;DHT22;6871;51.34740610;4.31323160;2022-08-03T11:30:05;27.00;69.10
13600;DHT22;6871;51.34740610;4.31323160;2022-08-03T11:33:02;27.00;69.20
13600;DHT22;6871;51.34740610;4.31323160;2022-08-03T11:35:33;27.00;69.30
13600;DHT22;6871;51.34740610;4.31323160;2022-08-03T11:38:07;27.00;69.30
13600;DHT22;6871;51.34740610;4.31323160;2022-08-03T11:40:44;27.00;68.90
13600;DHT22;6871;51.34740610;4.31323160;2022-08-03T11:46:19;27.10;69.30
13600;DHT22;6871;51.34740610;4.31323160;2022-08-03T11:48:49;27.00;69.30
13600;DHT22;6871;51.34740610;4.31323160;2022-08-03T11:51:23;27.10;69.40
13600;DHT22;6871;51.34740610;4.31323160;2022-08-03T11:53:54;27.10;69.30
13600;DHT22;6871;51.34740610;4.31323160;2022-08-03T11:56:24;27.10;70.20
13600;DHT22;6871;51.34740610;4.31323160;2022-08-03T11:58:55;27.10;69.40
13600;DHT22;6871;51.34740610;4.31323160;2022-08-03T12:01:25;27.20;69.70
13600;DHT22;6871;51.34740610;4.31323160;2022-08-03T12:03:55;27.20;69.50
13600;DHT22;6871;51.34740610;4.31323160;2022-08-03T12:06:25;27.20;69.60
13600;DHT22;6871;51.34740610;4.31323160;2022-08-03T12:08:54;27.20;69.60
13600;DHT22;6871;51.34740610;4.31323160;2022-08-03T12:11:23;27.20;69.10
13600;DHT22;6871;51.34740610;4.31323160;2022-08-03T12:13:52;27.20;69.00
13600;DHT22;6871;51.34740610;4.31323160;2022-08-03T12:16:23;27.20;69.30
13600;DHT22;6871;51.34740610;4.31323160;2022-08-03T12:18:56;27.20;69.10
13600;DHT22;6871;51.34740610;4.31323160;2022-08-03T12:21:25;27.20;69.30
13600;DHT22;6871;51.34740610;4.31323160;2022-08-03T12:23:57;27.20;68.80
13600;DHT22;6871;51.34740610;4.31323160;2022-08-03T12:26:27;27.20;68.90
13600;DHT22;6871;51.34740610;4.31323160;2022-08-03T12:28:56;27.20;69.10
13600;DHT22;6871;51.34740610;4.31323160;2022-08-03T12:31:25;27.20;69.60
13600;DHT22;6871;51.34740610;4.31323160;2022-08-03T12:33:59;27.20;68.90
13600;DHT22;6871;51.34740610;4.31323160;2022-08-03T12:36:31;27.20;68.80
13600;DHT22;6871;51.34740610;4.31323160;2022-08-03T12:39:03;27.20;68.80
13600;DHT22;6871;51.34740610;4.31323160;2022-08-03T12:41:34;27.20;68.70
13600;DHT22;6871;51.34740610;4.31323160;2022-08-03T12:44:06;27.30;68.60
13600;DHT22;6871;51.34740610;4.31323160;2022-08-03T12:46:36;27.20;68.70
13600;DHT22;6871;51.34740610;4.31323160;2022-08-03T12:49:07;27.20;68.70
13600;DHT22;6871;51.34740610;4.31323160;2022-08-03T12:51:54;27.20;68.80
13600;DHT22;6871;51.34740610;4.31323160;2022-08-03T12:54:17;27.30;69.00
13600;DHT22;6871;51.34740610;4.31323160;2022-08-03T12:56:58;27.30;68.90
13600;DHT22;6871;51.34740610;4.31323160;2022-08-03T12:59:28;27.30;68.90
13600;DHT22;6871;51.34740610;4.31323160;2022-08-03T13:01:57;27.20;69.00
13600;DHT22;6871;51.34740610;4.31323160;2022-08-03T13:04:28;27.30;69.10
13600;DHT22;6871;51.34740610;4.31323160;2022-08-03T13:06:58;27.30;69.20
13600;DHT22;6871;51.34740610;4.31323160;2022-08-03T13:09:28;27.30;69.60
13600;DHT22;6871;51.34740610;4.31323160;2022-08-03T13:12:17;27.30;69.60
13600;DHT22;6871;51.34740610;4.31323160;2022-08-03T13:14:48;27.20;69.90
13600;DHT22;6871;51.34740610;4.31323160;2022-08-03T13:17:17;27.20;68.70
13600;DHT22;6871;51.34740610;4.31323160;2022-08-03T13:19:47;27.30;69.70
13600;DHT22;6871;51.34740610;4.31323160;2022-08-03T13:22:20;27.20;69.70
13600;DHT22;6871;51.34740610;4.31323160;2022-08-03T13:24:52;27.30;70.00
13600;DHT22;6871;51.34740610;4.31323160;2022-08-03T13:27:25;27.30;70.50
13600;DHT22;6871;51.34740610;4.31323160;2022-08-03T13:29:56;27.30;70.50
13600;DHT22;6871;51.34740610;4.31323160;2022-08-03T13:32:25;27.30;70.60
13600;DHT22;6871;51.34740610;4.31323160;2022-08-03T13:34:54;27.30;70.50
13600;DHT22;6871;51.34740610;4.31323160;2022-08-03T13:37:23;27.30;70.40
13600;DHT22;6871;51.34740610;4.31323160;2022-08-03T13:39:52;27.30;70.40
13600;DHT22;6871;51.34740610;4.31323160;2022-08-03T13:42:21;27.30;70.30
13600;DHT22;6871;51.34740610;4.31323160;2022-08-03T13:44:50;27.30;70.10
13600;DHT22;6871;51.34740610;4.31323160;2022-08-03T13:47:20;27.30;70.60
13600;DHT22;6871;51.34740610;4.31323160;2022-08-03T13:49:49;27.30;70.50
13600;DHT22;6871;51.34740610;4.31323160;2022-08-03T13:52:20;27.30;70.30
13600;DHT22;6871;51.34740610;4.31323160;2022-08-03T13:54:49;27.30;70.30
13600;DHT22;6871;51.34740610;4.31323160;2022-08-03T13:57:18;27.30;70.30
13600;DHT22;6871;51.34740610;4.31323160;2022-08-03T13:59:46;27.30;70.30
13600;DHT22;6871;51.34740610;4.31323160;2022-08-03T14:02:17;27.30;70.20
13600;DHT22;6871;51.34740610;4.31323160;2022-08-03T14:04:47;27.40;70.50